Latest Coastal Weather Observations for Cape Grim

IDT60701

Issued at 6:32 am EDT Monday 18 November 2019 (issued every 10 minutes, with the page automatically refreshed every 10 minutes)

About coastal observations | Map of coastal stations | Coastal observations for TAS | Marine services | Other Formats
Station Details ID: 091331 Name: CAPE GRIM Lat: -40.68 Lon: 144.69 Height: 86.0 m
Data from the previous 72 hours. | See also: Recent months at Cape Grim
Date/Time
EDT
Wind Sea
Height
m
Swell Vis
km
Cloud Weather Temp
°C
Press
hPa
Rain since
9am
mm
Dir  Spd
kts
Gust
kts
Height
m
Period
s
Dir
18/06:30am W 22 28 - - - - - Cloudy - 11.1 1013.5 0.0
18/06:00am W 21 28 - - - - - Mostly cloudy - 11.1 1013.6 0.0
18/05:30am W 21 29 - - - - - Cloudy - 10.9 1013.5 0.0
18/05:00am W 21 27 - - - - - Cloudy - 10.8 1013.3 0.0
18/04:30am WNW 21 26 - - - - - Partly cloudy - 10.8 1013.5 0.0
18/04:00am WNW 19 26 - - - - - Partly cloudy - 10.6 1013.8 0.0
18/03:30am WNW 19 24 - - - - - Partly cloudy - 10.6 1014.2 0.0
18/03:00am WNW 19 23 - - - - - Mostly cloudy - 10.5 1014.3 0.0
18/02:30am W 19 28 - - - - - Cloudy - 10.6 1014.9 0.0
18/02:27am W 18 28 - - - - - Cloudy - 10.6 1015.0 0.0
18/02:00am W 16 21 - - - - - Cloudy - 10.7 1015.3 0.0
18/01:44am W 16 26 - - - - - Cloudy - 10.7 1015.8 0.0
18/01:30am W 18 26 - - - - - Cloudy - 10.6 1015.9 0.0
18/01:09am W 16 26 - - - - - Cloudy - 10.5 1015.9 0.0
18/01:00am W 17 24 - - - - - Partly cloudy - 10.6 1016.1 0.0
18/12:30am W 18 24 - - - - - Partly cloudy - 10.5 1016.7 0.0
18/12:00am W 16 23 - - - - - Partly cloudy - 10.5 1016.9 0.0
 
Date/Time
EDT
Wind Sea
Height
m
Swell Vis
km
Cloud Weather Temp
°C
Press
hPa
Rain since
9am
mm
Dir  Spd
kts
Gust
kts
Height
m
Period
s
Dir
17/11:30pm W 18 22 - - - - - Partly cloudy - 10.5 1017.2 0.0
17/11:00pm W 17 24 - - - - - Partly cloudy - 10.7 1017.5 0.0
17/10:30pm WNW 14 18 - - - - - Partly cloudy - 10.7 1017.8 0.0
17/10:00pm W 13 19 - - - - - Partly cloudy - 10.5 1018.2 0.0
17/09:30pm W 12 17 - - - - - Partly cloudy - 10.5 1018.3 0.0
17/09:00pm W 12 16 - - - - - Cloudy - 10.5 1018.2 0.0
17/08:30pm W 11 15 - - - - - Partly cloudy - 10.5 1018.3 0.0
17/08:00pm W 11 16 - - - - - Partly cloudy - 10.4 1018.5 0.0
17/07:30pm W 11 16 - - - - - Cloudy - 10.6 1018.6 0.0
17/07:00pm W 11 16 - - - - - Cloudy - 10.7 1018.3 0.0
17/06:30pm W 11 19 - - - - - Partly cloudy - 10.7 1018.5 0.0
17/06:00pm W 10 16 - - - - - Cloudy - 10.9 1019.1 0.0
17/05:30pm WSW 13 22 - - - - - Cloudy - 10.8 1019.5 0.0
17/05:00pm WSW 11 18 - - - - - Cloudy - 10.9 1019.5 0.0
17/04:30pm W 12 20 - - - - - Cloudy - 10.9 1019.4 0.0
17/04:00pm WSW 10 17 - - - - - Cloudy - 11.3 1019.4 0.0
17/03:30pm WSW 11 20 - - - - - Cloudy - 11.3 1019.3 0.0
17/03:00pm WSW 10 16 - - - - - Mostly cloudy - 12.0 1019.3 0.0
17/02:30pm SW 13 19 - - - - - Partly cloudy - 11.7 1019.5 0.0
17/02:00pm SW 13 19 - - - - - Cloudy - 11.8 1019.8 0.0
17/01:30pm SW 14 19 - - - - - Partly cloudy - 12.5 1020.0 0.0
17/01:00pm SW 14 20 - - - - - Partly cloudy - 12.6 1019.9 0.0
17/12:30pm SW 19 22 - - - - - Partly cloudy - 12.1 1019.9 0.0
17/12:00pm SW 19 24 - - - - - Cloudy - 11.6 1020.1 0.0
17/11:30am SW 17 23 - - - - - Partly cloudy - 11.2 1020.1 0.0
17/11:00am SW 19 26 - - - - - Partly cloudy - 11.9 1020.1 0.0
17/10:30am SW 17 27 - - - - - Partly cloudy - 10.9 1019.6 0.0
17/10:00am SW 15 20 - - - - - Partly cloudy - 11.3 1019.5 0.0
17/09:30am SW 22 26 - - - - - Partly cloudy - 10.6 1019.4 0.0
17/09:00am SW 21 27 - - - - - Partly cloudy - 10.4 1019.1 1.2
17/08:30am SW 22 28 - - - - - Partly cloudy - 10.5 1018.6 1.2
17/08:00am SW 22 27 - - - - - Partly cloudy - 10.0 1018.3 1.2
17/07:30am SW 22 28 - - - - - Partly cloudy - 9.8 1018.0 1.2
17/07:00am SW 21 28 - - - - - Partly cloudy - 9.8 1017.6 1.2
17/06:30am SW 22 27 - - - - - Partly cloudy - 9.8 1017.3 1.2
17/06:00am SW 23 29 - - - - - Mostly cloudy - 9.8 1017.1 1.2
17/05:30am SW 18 26 - - - - - Partly cloudy - 10.1 1016.7 1.2
17/05:00am SW 18 23 - - - - - Partly cloudy - 9.3 1016.3 1.2
17/04:38am SW 25 35 - - - - - Partly cloudy - 8.7 1016.4 1.2
17/04:30am SW 27 35 - - - - - Partly cloudy - 8.8 1016.3 1.2
17/04:00am SW 26 32 - - - - - Partly cloudy - 9.0 1016.2 1.2
17/03:30am SW 22 29 - - - - - Partly cloudy - 9.9 1016.0 1.2
17/03:14am SW 21 31 - - - - - Partly cloudy - 10.0 1016.0 1.2
17/03:00am SW 21 30 - - - - - Mostly cloudy - 9.9 1016.0 1.2
17/02:30am SW 22 27 - - - - - Partly cloudy - 9.6 1015.9 1.2
17/02:00am SW 25 33 - - - - - Partly cloudy - 9.2 1015.6 1.2
17/01:56am SW 23 33 - - - - - Partly cloudy - 10.0 1015.6 1.2
17/01:30am SW 24 30 - - - - - Partly cloudy - 10.0 1015.6 1.2
17/01:00am SW 24 32 - - - - - Partly cloudy - 10.4 1015.7 1.2
17/12:30am SW 20 30 - - - - - Partly cloudy - 10.2 1015.7 1.2
17/12:19am SW 23 33 - - - - - Partly cloudy - 10.2 1015.8 1.2
17/12:00am SW 22 31 - - - - - Partly cloudy - 10.2 1015.8 1.2
 
Date/Time
EDT
Wind Sea
Height
m
Swell Vis
km
Cloud Weather Temp
°C
Press
hPa
Rain since
9am
mm
Dir  Spd
kts
Gust
kts
Height
m
Period
s
Dir
16/11:31pm SW 21 31 - - - - - Partly cloudy - 10.4 1015.7 1.2
16/11:30pm SW 21 29 - - - - - Cloudy - 10.4 1015.7 1.2
16/11:00pm WSW 15 26 - - - - - Partly cloudy - 9.7 1015.7 1.2
16/10:33pm WSW 17 26 - - - - - Partly cloudy - 9.8 1015.7 1.2
16/10:30pm WSW 19 29 - - - - - Partly cloudy - 9.6 1015.8 1.2
16/10:16pm SW 27 37 - - - - - Partly cloudy - 9.2 1015.9 1.2
16/10:06pm WSW 18 33 - - - - - Partly cloudy - 10.1 1015.7 1.2
16/10:03pm WSW 15 29 - - - - - Partly cloudy - 10.6 1015.7 1.2
16/10:00pm W 14 27 - - - - - Partly cloudy - 10.6 1015.6 1.2
16/09:30pm WSW 17 28 - - - - - Partly cloudy - 10.3 1015.3 1.2
16/09:00pm W 18 31 - - - - - Cloudy Recent precip. 10.4 1015.2 1.2
16/08:36pm WSW 15 25 - - - - - Partly cloudy - 9.8 1015.3 1.2
16/08:30pm WSW 18 33 - - - - - Partly cloudy - 9.4 1015.3 1.0
16/08:17pm WSW 22 35 - - - - - Partly cloudy - 10.0 1015.3 0.4
16/08:16pm WSW 22 35 - - - - - Partly cloudy - 10.0 1015.3 0.4
16/08:00pm W 20 31 - - - - - Partly cloudy - 11.1 1014.9 0.0
16/07:31pm W 17 27 - - - - - Partly cloudy - 11.3 1014.7 0.0
16/07:30pm W 18 27 - - - - - Partly cloudy - 11.2 1014.7 0.0
16/07:00pm W 17 29 - - - - - Partly cloudy - 11.2 1014.4 0.0
16/06:30pm W 20 33 - - - - - Partly cloudy - 11.0 1014.3 0.0
16/06:07pm W 21 35 - - - - - Partly cloudy - 11.0 1014.2 0.0
16/06:00pm W 21 30 - - - - - Partly cloudy - 11.2 1014.3 0.0
16/05:30pm W 21 29 - - - - - Partly cloudy - 11.3 1014.5 0.0
16/05:05pm W 21 31 - - - - - Partly cloudy - 11.3 1014.3 0.0
16/05:00pm W 22 31 - - - - - Partly cloudy - 11.3 1014.3 0.0
16/04:30pm W 21 31 - - - - - Partly cloudy - 11.6 1014.3 0.0
16/04:06pm W 20 30 - - - - - Partly cloudy - 11.4 1014.3 0.0
16/04:00pm W 20 29 - - - - - Partly cloudy - 11.3 1014.4 0.0
16/03:30pm W 19 31 - - - - - Partly cloudy - 11.4 1014.3 0.0
16/03:00pm W 20 30 - - - - - Partly cloudy - 11.8 1014.4 0.0
16/02:40pm W 20 30 - - - - - Partly cloudy - 11.9 1014.3 0.0
16/02:30pm W 20 28 - - - - - Partly cloudy - 11.8 1014.3 0.0
16/02:00pm W 21 33 - - - - - Partly cloudy - 11.9 1014.3 0.0
16/01:32pm W 22 32 - - - - - Partly cloudy - 11.8 1014.4 0.0
16/01:30pm W 22 31 - - - - - Partly cloudy - 11.9 1014.4 0.0
16/01:00pm W 22 39 - - - - - Partly cloudy - 11.0 1014.3 0.0
16/12:30pm W 18 29 - - - - - Partly cloudy - 12.0 1014.3 0.0
16/12:00pm W 21 33 - - - - - - - 11.9 1014.5 0.0
16/11:30am WSW 17 33 - - - - - - - 11.6 1014.6 0.0
16/11:12am W 18 30 - - - - - Partly cloudy - 11.0 1014.5 0.0
16/11:00am W 19 26 - - - - - Partly cloudy - 10.6 1014.5 0.0
16/10:30am W 20 32 - - - - - Partly cloudy - 10.2 1014.2 0.0
16/10:01am WSW 15 26 - - - - - Partly cloudy - 11.4 1013.9 0.0
16/10:00am WSW 15 24 - - - - - Partly cloudy - 11.4 1013.9 0.0
16/09:42am W 15 25 - - - - - Partly cloudy - 11.2 1014.0 0.0
16/09:30am WSW 14 29 - - - - - Partly cloudy - 11.1 1014.0 0.0
16/09:00am WSW 16 31 - - - - - Mostly clear - 11.4 1013.8 4.2
16/08:30am WSW 18 30 - - - - - Partly cloudy - 11.0 1013.6 4.2
16/08:00am WSW 17 34 - - - - - Partly cloudy - 10.3 1013.3 4.2
16/07:30am SW 23 35 - - - - - Partly cloudy - 10.4 1012.9 4.2
16/07:00am WSW 19 33 - - - - - Partly cloudy - 10.5 1012.6 4.2
16/06:30am WSW 18 28 - - - - - Partly cloudy - 10.3 1012.1 4.2
16/06:00am WSW 18 29 - - - - - Mostly cloudy - 9.8 1012.1 4.2
16/05:30am W 20 31 - - - - - Partly cloudy - 10.3 1011.7 4.2
16/05:00am WSW 16 27 - - - - - Partly cloudy - 9.8 1011.8 4.2
16/04:30am WSW 17 28 - - - - - Partly cloudy - 10.2 1011.8 4.2
16/04:00am WSW 17 30 - - - - - Partly cloudy - 10.0 1011.8 4.2
16/03:32am WSW 16 27 - - - - - Partly cloudy - 10.1 1011.7 4.2
16/03:30am W 16 25 - - - - - Partly cloudy - 10.0 1011.8 4.2
16/03:00am WSW 19 31 - - - - - Partly cloudy - 9.9 1011.7 4.2
16/02:30am WSW 17 34 - - - - - Partly cloudy - 9.7 1011.7 4.2
16/02:17am WSW 17 32 - - - - - Partly cloudy - 9.4 1011.7 4.2
16/02:00am W 25 35 - - - - - Partly cloudy - 8.5 1011.9 4.2
16/01:50am W 21 43 - - - - - Partly cloudy - 9.8 1011.6 4.0
16/01:30am WSW 17 29 - - - - - Partly cloudy - 10.5 1011.7 3.8
16/01:00am WSW 19 35 - - - - - Partly cloudy - 10.5 1011.7 3.8
16/12:30am WSW 18 31 - - - - - Partly cloudy - 10.1 1011.8 3.8
16/12:00am W 19 31 - - - - - Partly cloudy Recent precip. 10.1 1011.7 3.8
 
Date/Time
EDT
Wind Sea
Height
m
Swell Vis
km
Cloud Weather Temp
°C
Press
hPa
Rain since
9am
mm
Dir  Spd
kts
Gust
kts
Height
m
Period
s
Dir
15/11:30pm W 19 29 - - - - - Partly cloudy - 9.9 1011.7 3.8
15/11:00pm WSW 24 42 - - - - - Partly cloudy - 8.6 1011.4 3.4
15/10:30pm WSW 20 34 - - - - - Partly cloudy - 10.8 1011.3 3.0
15/10:00pm WSW 18 32 - - - - - Partly cloudy - 10.4 1010.9 3.0
15/09:31pm WSW 18 30 - - - - - Partly cloudy - 10.4 1010.6 2.8
15/09:30pm WSW 18 27 - - - - - Partly cloudy - 10.5 1010.6 2.8
15/09:00pm WSW 18 30 - - - - - Partly cloudy Recent precip. 9.0 1010.5 2.8
15/08:50pm WSW 20 38 - - - - - Partly cloudy - 8.0 1010.4 2.8
15/08:31pm W 15 30 - - - - - Partly cloudy - 9.8 1010.0 1.8
15/08:30pm W 15 30 - - - - - Partly cloudy - 9.7 1010.0 1.8
15/08:28pm WSW 16 30 - - - - - Partly cloudy - 9.7 1010.0 1.8
15/08:00pm SW 23 33 - - - - - Partly cloudy - 9.3 1009.7 1.4
15/07:30pm WSW 19 32 - - - - - Partly cloudy - 10.7 1009.2 1.4
15/07:00pm WSW 17 29 - - - - - Partly cloudy - 10.4 1008.9 1.4
15/06:45pm WSW 16 35 - - - - - Partly cloudy - 9.9 1008.6 1.4
15/06:42pm WSW 15 25 - - - - - Partly cloudy - 10.7 1008.6 0.8
15/06:30pm W 17 25 - - - - - Partly cloudy - 10.7 1008.4 0.4
15/06:07pm WSW 15 31 - - - - - Partly cloudy - 9.3 1008.2 0.4
15/06:00pm WSW 12 22 - - - - - Mostly cloudy - 10.3 1008.2 0.2
15/05:30pm WSW 23 40 - - - - - Partly cloudy - 9.6 1007.8 0.2
15/05:26pm WSW 21 35 - - - - - Partly cloudy - 10.3 1007.7 0.2
15/05:00pm W 19 30 - - - - - Partly cloudy - 11.2 1007.4 0.2
15/04:30pm W 21 31 - - - - - Partly cloudy - 11.6 1007.1 0.2
15/04:01pm W 19 29 - - - - - Partly cloudy - 11.9 1006.9 0.2
15/04:00pm W 20 29 - - - - - Partly cloudy - 11.9 1006.9 0.2
15/03:30pm W 21 33 - - - - - Partly cloudy - 11.6 1006.6 0.2
15/03:00pm W 19 30 - - - - - Cloudy - 11.8 1006.4 0.2
15/02:30pm WSW 20 34 - - - - - - - 12.2 1006.2 0.2
15/02:00pm WSW 17 29 - - - - - Partly cloudy - 11.8 1006.0 0.2
15/01:30pm WSW 15 26 - - - - - Partly cloudy - 11.5 1006.0 0.2
15/01:00pm WSW 17 28 - - - - - Partly cloudy - 11.4 1005.7 0.2
15/12:31pm WSW 15 25 - - - - - Partly cloudy - 11.2 1005.6 0.2
15/12:30pm WSW 16 25 - - - - - Partly cloudy - 11.1 1005.6 0.2
15/12:00pm W 20 32 - - - - - Partly cloudy - 12.3 1005.5 0.2
15/11:38am W 18 28 - - - - - Partly cloudy - 12.3 1005.5 0.2
15/11:30am W 17 26 - - - - - Cloudy - 12.2 1005.5 0.2
15/11:00am W 20 30 - - - - - Partly cloudy - 11.7 1005.4 0.2
15/10:30am W 16 26 - - - - - Partly cloudy - 11.5 1005.6 0.2
15/10:00am WSW 15 25 - - - - - Partly cloudy - 10.6 1005.8 0.0
15/09:30am WSW 12 19 - - - - - Partly cloudy - 11.2 1005.7 0.0
15/09:00am WSW 13 23 - - - - - Mostly cloudy - 11.1 1005.7 2.8
15/08:30am SW 17 28 - - - - - Partly cloudy - 11.1 1005.4 2.8
15/08:00am SW 16 26 - - - - - Cloudy - 11.5 1005.2 2.8
15/07:30am SW 19 29 - - - - - Partly cloudy - 11.2 1005.0 2.8
15/07:00am WSW 17 30 - - - - - Partly cloudy - 11.0 1004.9 2.8
15/06:33am W 16 26 - - - - - Partly cloudy - 11.0 1004.5 2.8

Other formats

Comma delimited format used in spreadsheet applications
http://www.bom.gov.au/fwo/IDT60701/IDT60701.95954.axf

JavaScript Object Notation format (JSON) in row-major order
http://www.bom.gov.au/fwo/IDT60701/IDT60701.95954.json

Data quality

Most of these data are generated automatically and are frequently updated. Quality checks on data are not normally performed. It is possible for incorrect values to appear. Refer to information at About Latest Weather Observations and please check the disclaimer before using these data.